Time;durP1;ratioP1;P1;durP2;ratioP2;P2;SDS_P1;SDS_P2;PMS_P1;PMS_P2;Temp;Humidity;BMP_temperature;BMP_pressure;BME280_temperature;BME280_humidity;BME280_pressure;Samples;Min_cycle;Max_cycle;Signal;HPM_P1;HPM_P2
2024/04/20 00:01:11;;;;;;;7.18;2.25;;;;;;;;;;5448304;26;20011;-60
2024/04/20 00:03:36;;;;;;;5.10;2.00;;;;;;;;;;5415860;26;20008;-61
2024/04/20 00:06:05;;;;;;;5.00;1.90;;;;;;;;;;5414879;26;20011;-62
2024/04/20 00:08:31;;;;;;;7.95;2.50;;;;;;;;;;5421663;26;20031;-60
2024/04/20 00:10:57;;;;;;;7.40;2.00;;;;;;;;;;5440881;26;19999;-61
2024/04/20 00:13:22;;;;;;;6.40;2.00;;;;;;;;;;5449518;26;19994;-60
2024/04/20 00:15:48;;;;;;;5.72;2.00;;;;;;;;;;5437904;26;20011;-62
2024/04/20 00:18:13;;;;;;;5.72;2.15;;;;;;;;;;5412669;26;20071;-60
2024/04/20 00:20:39;;;;;;;5.35;2.10;;;;;;;;;;5415012;26;19995;-61
2024/04/20 00:23:04;;;;;;;5.93;2.20;;;;;;;;;;5414659;26;20471;-63
2024/04/20 00:25:30;;;;;;;5.30;2.05;;;;;;;;;;5420331;26;20007;-61
2024/04/20 00:27:55;;;;;;;6.40;2.20;;;;;;;;;;5442646;26;19995;-62
2024/04/20 00:30:21;;;;;;;7.53;2.05;;;;;;;;;;5445227;26;20030;-60
2024/04/20 00:32:47;;;;;;;4.25;1.90;;;;;;;;;;5435102;26;19999;-62
2024/04/20 00:35:15;;;;;;;5.10;2.10;;;;;;;;;;5442291;26;20046;-63
2024/04/20 00:37:40;;;;;;;6.10;2.28;;;;;;;;;;5415708;26;20474;-61
2024/04/20 00:40:06;;;;;;;5.25;1.90;;;;;;;;;;5421451;26;20006;-63
2024/04/20 00:42:32;;;;;;;6.63;2.30;;;;;;;;;;5444656;26;20010;-64
2024/04/20 00:44:57;;;;;;;5.00;2.00;;;;;;;;;;5451292;26;20007;-61
2024/04/20 00:47:23;;;;;;;5.25;2.00;;;;;;;;;;5430973;26;20006;-62
2024/04/20 00:49:48;;;;;;;5.43;1.90;;;;;;;;;;5414911;26;19991;-63
2024/04/20 00:52:14;;;;;;;6.50;2.00;;;;;;;;;;5423387;26;20003;-61
2024/04/20 00:54:40;;;;;;;6.68;1.85;;;;;;;;;;5431603;26;20455;-60
2024/04/20 00:57:07;;;;;;;5.05;1.77;;;;;;;;;;5427683;26;19991;-60
2024/04/20 00:59:33;;;;;;;4.90;1.70;;;;;;;;;;5429580;26;20013;-62
2024/04/20 01:01:58;;;;;;;6.57;2.00;;;;;;;;;;5449013;26;20007;-62
2024/04/20 01:04:24;;;;;;;4.65;1.70;;;;;;;;;;5441562;26;20006;-61
2024/04/20 01:06:49;;;;;;;5.07;1.73;;;;;;;;;;5421508;26;19997;-61
2024/04/20 01:09:15;;;;;;;5.15;1.77;;;;;;;;;;5441116;26;20008;-61
2024/04/20 01:11:41;;;;;;;4.53;1.60;;;;;;;;;;5446794;26;20015;-61
2024/04/20 01:14:07;;;;;;;3.55;1.20;;;;;;;;;;5448046;26;20002;-62
2024/04/20 01:16:32;;;;;;;5.30;1.10;;;;;;;;;;5428868;26;20011;-63
2024/04/20 01:18:58;;;;;;;3.88;1.45;;;;;;;;;;5452696;26;20006;-60
2024/04/20 01:21:25;;;;;;;3.60;1.25;;;;;;;;;;5413902;26;20003;-61
2024/04/20 01:23:53;;;;;;;4.32;1.20;;;;;;;;;;5445255;26;20003;-60
2024/04/20 01:26:18;;;;;;;4.35;1.45;;;;;;;;;;5449193;26;20010;-62
2024/04/20 01:28:44;;;;;;;3.65;1.38;;;;;;;;;;5433092;26;20011;-60
2024/04/20 01:34:12;;;;;;;5.93;1.38;;;;;;;;;;5420499;26;20072;-60
2024/04/20 01:36:38;;;;;;;5.80;1.30;;;;;;;;;;5440003;26;20011;-61
2024/04/20 01:39:03;;;;;;;4.20;1.50;;;;;;;;;;5442277;26;20052;-62
2024/04/20 01:41:29;;;;;;;4.07;1.15;;;;;;;;;;5450618;26;20010;-62
2024/04/20 01:43:54;;;;;;;3.65;1.40;;;;;;;;;;5441472;26;19988;-61
2024/04/20 01:46:20;;;;;;;5.50;1.55;;;;;;;;;;5431205;26;20011;-61
2024/04/20 01:48:46;;;;;;;4.72;1.35;;;;;;;;;;5442442;26;20062;-61
2024/04/20 01:51:11;;;;;;;4.68;1.30;;;;;;;;;;5450324;26;20003;-62
2024/04/20 01:53:37;;;;;;;3.65;1.33;;;;;;;;;;5427423;26;20019;-61
2024/04/20 01:56:05;;;;;;;4.97;1.63;;;;;;;;;;5428235;26;20071;-60
2024/04/20 01:58:33;;;;;;;4.40;1.40;;;;;;;;;;5451865;26;19995;-61
2024/04/20 02:00:59;;;;;;;4.15;1.55;;;;;;;;;;5441970;26;20003;-60
2024/04/20 02:03:24;;;;;;;10.00;1.67;;;;;;;;;;5422812;26;20062;-61
2024/04/20 02:05:50;;;;;;;5.43;1.75;;;;;;;;;;5449588;26;19999;-63
2024/04/20 02:08:15;;;;;;;5.18;1.55;;;;;;;;;;5444206;26;20019;-62
2024/04/20 02:10:41;;;;;;;4.78;1.90;;;;;;;;;;5437471;26;20072;-60
2024/04/20 02:13:06;;;;;;;5.03;1.80;;;;;;;;;;5418109;26;19992;-63
2024/04/20 02:15:32;;;;;;;5.57;1.70;;;;;;;;;;5417224;26;20264;-62
2024/04/20 02:17:57;;;;;;;4.57;1.70;;;;;;;;;;5452701;26;20040;-62
2024/04/20 02:20:23;;;;;;;4.55;1.95;;;;;;;;;;5438670;26;20003;-61
2024/04/20 02:22:50;;;;;;;5.97;1.83;;;;;;;;;;5418431;26;20484;-63
2024/04/20 02:25:16;;;;;;;5.07;1.92;;;;;;;;;;5416852;26;20010;-61
2024/04/20 02:27:41;;;;;;;5.30;2.10;;;;;;;;;;5438466;26;20007;-62
2024/04/20 02:30:07;;;;;;;5.20;2.20;;;;;;;;;;5453911;26;20011;-62
2024/04/20 02:32:32;;;;;;;5.05;2.08;;;;;;;;;;5453587;26;19996;-61
2024/04/20 02:34:58;;;;;;;4.03;1.73;;;;;;;;;;5431344;26;20011;-62
2024/04/20 02:37:23;;;;;;;4.93;1.80;;;;;;;;;;5442989;26;20009;-65
2024/04/20 02:39:49;;;;;;;4.82;2.20;;;;;;;;;;5469328;26;20006;-61
2024/04/20 02:42:14;;;;;;;4.45;2.00;;;;;;;;;;5445226;26;20071;-62
2024/04/20 02:44:40;;;;;;;4.40;2.10;;;;;;;;;;5435235;26;20007;-63
2024/04/20 02:47:06;;;;;;;4.38;2.00;;;;;;;;;;5443267;26;20014;-62
2024/04/20 02:49:31;;;;;;;5.05;2.20;;;;;;;;;;5428268;26;20016;-60
2024/04/20 02:51:57;;;;;;;5.28;2.10;;;;;;;;;;5416206;26;20068;-63
2024/04/20 02:54:22;;;;;;;4.68;2.20;;;;;;;;;;5420733;26;20006;-63
2024/04/20 02:56:48;;;;;;;5.38;2.20;;;;;;;;;;5439139;26;20011;-61
2024/04/20 02:59:14;;;;;;;5.07;2.40;;;;;;;;;;5450958;26;20056;-61
2024/04/20 03:01:39;;;;;;;5.88;2.65;;;;;;;;;;5449039;26;20062;-60
2024/04/20 03:04:05;;;;;;;6.32;2.10;;;;;;;;;;5438904;26;20004;-62
2024/04/20 03:06:30;;;;;;;5.43;2.33;;;;;;;;;;5446065;26;20014;-61
2024/04/20 03:08:56;;;;;;;4.57;2.40;;;;;;;;;;5450602;26;20167;-62
2024/04/20 03:11:21;;;;;;;7.88;2.80;;;;;;;;;;5452165;26;20003;-62
2024/04/20 03:13:50;;;;;;;7.10;2.63;;;;;;;;;;5433343;26;20489;-63
2024/04/20 03:16:19;;;;;;;6.00;2.88;;;;;;;;;;5431543;26;20462;-62
2024/04/20 03:18:44;;;;;;;6.78;3.17;;;;;;;;;;5427729;26;20003;-62
2024/04/20 03:21:10;;;;;;;5.45;2.67;;;;;;;;;;5428710;26;20177;-60
2024/04/20 03:23:37;;;;;;;6.85;3.17;;;;;;;;;;5415676;26;19991;-61
2024/04/20 03:26:03;;;;;;;5.50;2.85;;;;;;;;;;5422046;26;20003;-61
2024/04/20 03:28:28;;;;;;;6.70;3.35;;;;;;;;;;5439668;26;19999;-62
2024/04/20 03:30:54;;;;;;;4.93;2.67;;;;;;;;;;5426171;26;20089;-61
2024/04/20 03:33:21;;;;;;;6.05;2.95;;;;;;;;;;5415019;26;19999;-62
2024/04/20 03:35:47;;;;;;;5.65;3.13;;;;;;;;;;5414425;26;20056;-61
2024/04/20 03:38:12;;;;;;;8.05;3.10;;;;;;;;;;5428341;26;20716;-61
2024/04/20 03:40:38;;;;;;;6.60;3.28;;;;;;;;;;5443168;26;20052;-61
2024/04/20 03:43:04;;;;;;;6.03;2.95;;;;;;;;;;5439474;26;20007;-63
2024/04/20 03:45:30;;;;;;;6.78;2.97;;;;;;;;;;5447296;26;20013;-63
2024/04/20 03:47:55;;;;;;;5.60;2.88;;;;;;;;;;5430361;26;20405;-61
2024/04/20 03:50:25;;;;;;;7.47;3.67;;;;;;;;;;5435290;26;20009;-61
2024/04/20 03:52:51;;;;;;;7.55;3.17;;;;;;;;;;5434812;26;20034;-61
2024/04/20 03:55:18;;;;;;;7.00;3.50;;;;;;;;;;5441500;26;19988;-61
2024/04/20 03:57:43;;;;;;;;;;;;;;;;;;5422148;26;19999;-62
2024/04/20 04:00:11;;;;;;;7.33;3.30;;;;;;;;;;5444447;26;19931;-61
2024/04/20 04:02:37;;;;;;;6.57;3.45;;;;;;;;;;5425637;26;20357;-61
2024/04/20 04:05:03;;;;;;;6.03;3.17;;;;;;;;;;5414881;26;20068;-61
2024/04/20 04:07:28;;;;;;;7.18;3.63;;;;;;;;;;5414549;26;20064;-60
2024/04/20 04:09:54;;;;;;;12.02;3.70;;;;;;;;;;5435579;26;19999;-61
2024/04/20 04:12:19;;;;;;;7.10;3.42;;;;;;;;;;5451524;26;20002;-61
2024/04/20 04:14:45;;;;;;;7.22;3.90;;;;;;;;;;5452609;26;20005;-61
2024/04/20 04:17:10;;;;;;;8.18;4.25;;;;;;;;;;5452220;26;20010;-60
2024/04/20 04:19:36;;;;;;;8.30;3.92;;;;;;;;;;5449509;26;20011;-61
2024/04/20 04:22:02;;;;;;;9.57;4.30;;;;;;;;;;5453631;26;20013;-60
2024/04/20 04:24:27;;;;;;;8.93;4.30;;;;;;;;;;5453016;26;20119;-60
2024/04/20 04:27:07;;;;;;;8.82;4.30;;;;;;;;;;5446832;26;19994;-61
2024/04/20 04:29:32;;;;;;;10.57;4.93;;;;;;;;;;5435157;26;20342;-61
2024/04/20 04:31:58;;;;;;;10.80;5.25;;;;;;;;;;5450574;26;19999;-63
2024/04/20 04:34:23;;;;;;;10.60;4.93;;;;;;;;;;5442833;26;20003;-63
2024/04/20 04:36:49;;;;;;;11.20;4.40;;;;;;;;;;5432936;26;20412;-61
2024/04/20 04:39:16;;;;;;;8.88;4.53;;;;;;;;;;5438540;26;20340;-61
2024/04/20 04:41:41;;;;;;;;;;;;;;;;;;5449685;26;19994;-60
2024/04/20 04:44:07;;;;;;;9.35;4.55;;;;;;;;;;5449820;26;19971;-61
2024/04/20 04:46:32;;;;;;;8.70;4.72;;;;;;;;;;5440121;26;20002;-62
2024/04/20 04:48:58;;;;;;;9.27;5.07;;;;;;;;;;5449831;26;20003;-61
2024/04/20 04:51:23;;;;;;;8.68;4.72;;;;;;;;;;5434193;26;20010;-64
2024/04/20 04:53:49;;;;;;;8.85;4.43;;;;;;;;;;5427783;26;20016;-63
2024/04/20 04:56:14;;;;;;;10.90;5.40;;;;;;;;;;5430476;26;20014;-62
2024/04/20 04:58:40;;;;;;;11.38;5.20;;;;;;;;;;5418920;26;20003;-61
2024/04/20 05:01:05;;;;;;;10.90;5.10;;;;;;;;;;5430524;26;20007;-61
2024/04/20 05:03:32;;;;;;;16.85;5.70;;;;;;;;;;5443724;26;20083;-64
2024/04/20 05:05:57;;;;;;;12.63;5.68;;;;;;;;;;5421496;26;20031;-61
2024/04/20 05:08:26;;;;;;;13.82;5.95;;;;;;;;;;5439483;26;20067;-61
2024/04/20 05:10:52;;;;;;;15.40;6.22;;;;;;;;;;5461464;26;20009;-62
2024/04/20 05:13:17;;;;;;;14.00;5.18;;;;;;;;;;5429580;26;19999;-62
2024/04/20 05:15:43;;;;;;;10.55;5.15;;;;;;;;;;5418383;26;20071;-62
2024/04/20 05:18:08;;;;;;;9.32;3.78;;;;;;;;;;5436303;26;20068;-61
2024/04/20 05:20:35;;;;;;;7.32;3.20;;;;;;;;;;5440397;26;20004;-63
2024/04/20 05:23:01;;;;;;;5.68;2.78;;;;;;;;;;5430500;26;20075;-61
2024/04/20 05:25:26;;;;;;;7.72;2.75;;;;;;;;;;5427806;26;20011;-61
2024/04/20 05:27:52;;;;;;;9.05;3.15;;;;;;;;;;5443765;26;19991;-60
2024/04/20 05:30:17;;;;;;;6.55;2.35;;;;;;;;;;5434971;26;20008;-64
2024/04/20 05:32:43;;;;;;;6.95;2.20;;;;;;;;;;5440511;26;20064;-62
2024/04/20 05:35:09;;;;;;;6.07;2.13;;;;;;;;;;5441095;26;20018;-61
2024/04/20 05:37:34;;;;;;;5.22;2.05;;;;;;;;;;5433358;26;20003;-61
2024/04/20 05:40:00;;;;;;;5.95;1.90;;;;;;;;;;5440991;26;20003;-62
2024/04/20 05:42:25;;;;;;;4.25;1.80;;;;;;;;;;5416473;26;20013;-61
2024/04/20 05:44:51;;;;;;;7.50;2.78;;;;;;;;;;5436680;26;20007;-61
2024/04/20 05:47:17;;;;;;;5.78;2.28;;;;;;;;;;5416292;26;20076;-61
2024/04/20 05:49:42;;;;;;;5.32;1.98;;;;;;;;;;5437878;26;20007;-61
2024/04/20 05:52:08;;;;;;;5.18;2.03;;;;;;;;;;5435779;26;20138;-62
2024/04/20 05:54:33;;;;;;;5.28;1.95;;;;;;;;;;5442611;26;19995;-62
2024/04/20 05:56:59;;;;;;;4.93;1.80;;;;;;;;;;5414447;26;20068;-61
2024/04/20 05:59:24;;;;;;;4.05;1.20;;;;;;;;;;5413133;26;19992;-62
2024/04/20 06:01:50;;;;;;;3.15;1.00;;;;;;;;;;5441647;26;20003;-62
2024/04/20 06:04:16;;;;;;;2.53;0.80;;;;;;;;;;5440558;26;20067;-62
2024/04/20 06:06:42;;;;;;;3.15;0.60;;;;;;;;;;5419172;26;20332;-62
2024/04/20 06:09:08;;;;;;;2.67;0.60;;;;;;;;;;5438190;26;20002;-62
2024/04/20 06:11:34;;;;;;;2.30;0.60;;;;;;;;;;5425505;26;20435;-63
2024/04/20 06:13:59;;;;;;;4.03;0.80;;;;;;;;;;5442142;26;19995;-62
2024/04/20 06:16:25;;;;;;;4.32;0.70;;;;;;;;;;5427496;26;20011;-61
2024/04/20 06:18:51;;;;;;;3.33;0.80;;;;;;;;;;5415201;26;20333;-62
2024/04/20 06:21:17;;;;;;;1.80;0.60;;;;;;;;;;5411380;26;20531;-62
2024/04/20 06:23:42;;;;;;;1.60;0.60;;;;;;;;;;5430571;26;20007;-63
2024/04/20 06:26:08;;;;;;;3.10;0.73;;;;;;;;;;5439990;26;20006;-61
2024/04/20 06:28:33;;;;;;;3.78;0.80;;;;;;;;;;5455188;26;20510;-62
2024/04/20 06:30:59;;;;;;;2.25;0.80;;;;;;;;;;5458787;26;20010;-63
2024/04/20 06:33:27;;;;;;;3.35;0.90;;;;;;;;;;5457207;26;20002;-64
2024/04/20 06:35:52;;;;;;;3.03;1.00;;;;;;;;;;5452381;26;20106;-63
2024/04/20 06:38:18;;;;;;;3.30;0.95;;;;;;;;;;5461929;26;20021;-63
2024/04/20 06:40:43;;;;;;;3.35;0.70;;;;;;;;;;5421155;26;20003;-65
2024/04/20 06:43:09;;;;;;;4.97;0.85;;;;;;;;;;5432917;26;20514;-63
2024/04/20 06:45:35;;;;;;;2.00;0.60;;;;;;;;;;5446785;26;20014;-62
2024/04/20 06:48:01;;;;;;;1.98;0.60;;;;;;;;;;5430695;26;19990;-64
2024/04/20 06:50:27;;;;;;;1.70;0.70;;;;;;;;;;5439413;26;20013;-62
2024/04/20 06:52:52;;;;;;;1.73;0.65;;;;;;;;;;5436380;26;20004;-63
2024/04/20 06:55:18;;;;;;;2.60;0.70;;;;;;;;;;5413407;26;19996;-63
2024/04/20 06:57:44;;;;;;;2.22;0.50;;;;;;;;;;5417707;26;20003;-65
2024/04/20 07:00:10;;;;;;;1.55;0.57;;;;;;;;;;5453715;26;19994;-64
2024/04/20 07:02:36;;;;;;;2.13;0.63;;;;;;;;;;5440956;26;19999;-61
2024/04/20 07:05:01;;;;;;;2.42;0.90;;;;;;;;;;5422751;26;20049;-64
2024/04/20 07:07:27;;;;;;;2.05;0.70;;;;;;;;;;5427139;26;19996;-63
2024/04/20 07:09:52;;;;;;;2.17;0.70;;;;;;;;;;5444209;26;20063;-60
2024/04/20 07:12:18;;;;;;;3.17;0.70;;;;;;;;;;5449046;26;20071;-62
2024/04/20 07:14:44;;;;;;;2.67;0.75;;;;;;;;;;5441372;26;19995;-69
2024/04/20 07:17:09;;;;;;;2.08;0.80;;;;;;;;;;5432023;26;20324;-63
2024/04/20 07:19:35;;;;;;;2.55;0.90;;;;;;;;;;5445585;26;20150;-64
2024/04/20 07:22:01;;;;;;;3.05;0.95;;;;;;;;;;5446175;26;20067;-61
2024/04/20 07:24:26;;;;;;;3.92;1.05;;;;;;;;;;5425369;26;20492;-62
2024/04/20 07:26:52;;;;;;;3.80;1.13;;;;;;;;;;5451684;26;20009;-62
2024/04/20 07:29:17;;;;;;;4.53;1.00;;;;;;;;;;5449716;26;20067;-63
2024/04/20 07:31:43;;;;;;;3.72;1.05;;;;;;;;;;5451295;26;20042;-60
2024/04/20 07:34:08;;;;;;;6.30;1.40;;;;;;;;;;5445651;26;20487;-60
2024/04/20 07:36:34;;;;;;;4.53;1.20;;;;;;;;;;5428707;26;20002;-63
2024/04/20 07:38:59;;;;;;;3.33;1.20;;;;;;;;;;5437583;26;20004;-65
2024/04/20 07:41:25;;;;;;;3.47;1.10;;;;;;;;;;5427101;26;20471;-62
2024/04/20 07:43:51;;;;;;;4.40;1.40;;;;;;;;;;5439550;26;20006;-62
2024/04/20 07:46:16;;;;;;;3.30;1.10;;;;;;;;;;5428315;26;20063;-62
2024/04/20 07:48:44;;;;;;;4.82;1.27;;;;;;;;;;5442930;26;20003;-62
2024/04/20 07:51:09;;;;;;;6.07;1.33;;;;;;;;;;5450521;26;20406;-63
2024/04/20 07:53:35;;;;;;;4.97;1.50;;;;;;;;;;5446729;26;19991;-61
2024/04/20 07:56:00;;;;;;;4.00;1.33;;;;;;;;;;5449401;26;20015;-63
2024/04/20 07:58:26;;;;;;;5.85;1.33;;;;;;;;;;5439270;26;20575;-61
2024/04/20 08:00:51;;;;;;;5.50;1.30;;;;;;;;;;5442182;26;20020;-61
2024/04/20 08:03:17;;;;;;;5.22;1.20;;;;;;;;;;5439036;26;20054;-61
2024/04/20 08:05:43;;;;;;;4.30;1.35;;;;;;;;;;5426488;26;20006;-63
2024/04/20 08:08:09;;;;;;;3.67;1.08;;;;;;;;;;5439303;26;20366;-64
2024/04/20 08:10:34;;;;;;;3.45;1.13;;;;;;;;;;5424787;26;20006;-68
2024/04/20 08:13:00;;;;;;;2.63;0.88;;;;;;;;;;5414411;26;20637;-61
2024/04/20 08:15:25;;;;;;;2.63;0.95;;;;;;;;;;5441197;26;20575;-62
2024/04/20 08:17:51;;;;;;;3.72;1.20;;;;;;;;;;5446294;26;20384;-64
2024/04/20 08:20:17;;;;;;;3.47;1.10;;;;;;;;;;5432683;26;20333;-62
2024/04/20 08:22:42;;;;;;;3.17;0.90;;;;;;;;;;5414403;26;20015;-65
2024/04/20 08:25:08;;;;;;;2.20;0.70;;;;;;;;;;5438170;26;20010;-62
2024/04/20 08:27:34;;;;;;;2.65;0.80;;;;;;;;;;5439673;26;20068;-61
2024/04/20 08:30:00;;;;;;;3.03;1.10;;;;;;;;;;5428102;26;20000;-62
2024/04/20 08:32:25;;;;;;;3.30;1.08;;;;;;;;;;5435516;26;20071;-63
2024/04/20 08:34:51;;;;;;;4.85;1.30;;;;;;;;;;5419450;26;19995;-61
2024/04/20 08:37:19;;;;;;;3.30;1.30;;;;;;;;;;5444713;26;19991;-64
2024/04/20 08:39:45;;;;;;;3.40;1.27;;;;;;;;;;5433917;26;20641;-62
2024/04/20 08:42:20;;;;;;;3.35;1.08;;;;;;;;;;5435674;26;19998;-61
2024/04/20 08:44:48;;;;;;;4.25;1.23;;;;;;;;;;5446936;26;20059;-62
2024/04/20 08:47:14;;;;;;;4.20;1.40;;;;;;;;;;5448547;26;20013;-62
2024/04/20 08:49:41;;;;;;;4.80;1.40;;;;;;;;;;5450636;26;20007;-65
2024/04/20 08:52:07;;;;;;;3.70;1.13;;;;;;;;;;5452518;26;20002;-62
2024/04/20 08:54:32;;;;;;;4.25;1.45;;;;;;;;;;5439962;26;20009;-61
2024/04/20 08:57:01;;;;;;;4.07;1.30;;;;;;;;;;5432169;26;20050;-64
2024/04/20 08:59:26;;;;;;;3.70;1.20;;;;;;;;;;5442033;26;19995;-62
2024/04/20 09:01:54;;;;;;;4.72;1.65;;;;;;;;;;5436833;26;20514;-62
2024/04/20 09:04:20;;;;;;;4.32;1.33;;;;;;;;;;5437331;26;20004;-64
2024/04/20 09:06:47;;;;;;;5.45;1.48;;;;;;;;;;5429379;26;20003;-61
2024/04/20 09:09:13;;;;;;;5.82;1.50;;;;;;;;;;5439843;26;20015;-61
2024/04/20 09:11:38;;;;;;;5.40;1.27;;;;;;;;;;5438014;26;19999;-61
2024/04/20 09:14:04;;;;;;;4.55;1.40;;;;;;;;;;5431595;26;20079;-66
2024/04/20 09:16:29;;;;;;;4.45;1.30;;;;;;;;;;5428456;26;20008;-61
2024/04/20 09:18:55;;;;;;;3.83;1.40;;;;;;;;;;5451479;26;20356;-62
2024/04/20 09:21:20;;;;;;;3.83;1.40;;;;;;;;;;5444624;26;19999;-61
2024/04/20 09:23:46;;;;;;;5.88;1.33;;;;;;;;;;5442746;26;20458;-63
2024/04/20 09:26:17;;;;;;;4.65;1.70;;;;;;;;;;5444059;26;20070;-64
2024/04/20 09:28:47;;;;;;;4.15;1.50;;;;;;;;;;5440780;26;20468;-62
2024/04/20 09:31:12;;;;;;;4.65;1.63;;;;;;;;;;5440125;26;20437;-62
2024/04/20 09:33:38;;;;;;;4.35;1.42;;;;;;;;;;5429101;26;19999;-63
2024/04/20 09:36:04;;;;;;;4.40;1.70;;;;;;;;;;5437599;26;20067;-70
2024/04/20 09:38:29;;;;;;;5.47;1.60;;;;;;;;;;5445161;26;19991;-61
2024/04/20 09:40:55;;;;;;;4.32;1.63;;;;;;;;;;5441307;26;20067;-62
2024/04/20 09:43:21;;;;;;;4.57;1.70;;;;;;;;;;5433830;26;20010;-60
2024/04/20 09:45:49;;;;;;;3.88;1.58;;;;;;;;;;5435682;26;20011;-61
2024/04/20 09:48:18;;;;;;;5.80;2.10;;;;;;;;;;5420253;26;20017;-63
2024/04/20 09:50:49;;;;;;;4.22;1.40;;;;;;;;;;5427115;26;19999;-66
2024/04/20 09:53:24;;;;;;;5.13;1.63;;;;;;;;;;5434741;26;20007;-63
2024/04/20 09:55:49;;;;;;;4.07;1.60;;;;;;;;;;5440707;26;20010;-61
2024/04/20 09:58:17;;;;;;;4.35;1.67;;;;;;;;;;5431454;26;20344;-64
2024/04/20 10:00:44;;;;;;;5.38;2.10;;;;;;;;;;5444578;26;19999;-63
2024/04/20 10:03:09;;;;;;;3.67;1.48;;;;;;;;;;5439856;26;20014;-61
2024/04/20 10:05:36;;;;;;;4.43;1.73;;;;;;;;;;5440295;26;20011;-62
2024/04/20 10:08:03;;;;;;;4.65;1.77;;;;;;;;;;5432993;26;20007;-61
2024/04/20 10:10:29;;;;;;;4.63;1.65;;;;;;;;;;5426646;26;20397;-62
2024/04/20 10:12:59;;;;;;;4.53;1.23;;;;;;;;;;5441286;26;20391;-60
2024/04/20 10:15:25;;;;;;;4.82;1.60;;;;;;;;;;5423804;26;20341;-63
2024/04/20 10:17:50;;;;;;;5.18;1.73;;;;;;;;;;5434402;26;20060;-63
2024/04/20 10:20:16;;;;;;;3.70;1.40;;;;;;;;;;5442437;26;20446;-61
2024/04/20 10:22:41;;;;;;;4.35;1.80;;;;;;;;;;5440936;26;20075;-64
2024/04/20 10:25:10;;;;;;;4.90;1.58;;;;;;;;;;5439181;26;20006;-64
2024/04/20 10:27:38;;;;;;;4.55;1.58;;;;;;;;;;5432696;26;20389;-62
2024/04/20 10:30:18;;;;;;;3.60;1.35;;;;;;;;;;5437165;26;21006;-65
2024/04/20 10:32:44;;;;;;;4.10;1.70;;;;;;;;;;5427440;26;20008;-63
2024/04/20 10:35:09;;;;;;;4.32;1.67;;;;;;;;;;5419832;26;20073;-62
2024/04/20 10:37:35;;;;;;;5.13;1.55;;;;;;;;;;5438500;26;20006;-60
2024/04/20 10:40:10;;;;;;;4.18;1.67;;;;;;;;;;5439152;26;20710;-61
2024/04/20 10:42:36;;;;;;;6.45;2.47;;;;;;;;;;5429736;26;20044;-61
2024/04/20 10:45:10;;;;;;;6.85;2.45;;;;;;;;;;5441897;26;20006;-64
2024/04/20 10:47:36;;;;;;;5.40;1.63;;;;;;;;;;5439285;26;20014;-62
2024/04/20 10:50:01;;;;;;;4.93;1.92;;;;;;;;;;5440772;26;20002;-63
2024/04/20 10:52:27;;;;;;;4.97;1.60;;;;;;;;;;5437260;26;19999;-62
2024/04/20 10:54:53;;;;;;;6.57;2.53;;;;;;;;;;5447742;26;19994;-62
2024/04/20 10:57:18;;;;;;;5.82;2.78;;;;;;;;;;5428773;26;20010;-63
2024/04/20 10:59:44;;;;;;;5.85;2.00;;;;;;;;;;5439040;26;20007;-65
2024/04/20 11:02:12;;;;;;;5.03;1.70;;;;;;;;;;5432536;26;20083;-63
2024/04/20 11:04:37;;;;;;;4.53;1.67;;;;;;;;;;5427133;26;20007;-62
2024/04/20 11:07:04;;;;;;;4.93;1.90;;;;;;;;;;5429681;26;20486;-67
2024/04/20 11:09:29;;;;;;;5.45;1.77;;;;;;;;;;5447598;26;20003;-62
2024/04/20 11:12:00;;;;;;;4.38;1.77;;;;;;;;;;5442820;26;20067;-63
2024/04/20 11:14:26;;;;;;;5.07;1.70;;;;;;;;;;5445809;26;19991;-63
2024/04/20 11:16:51;;;;;;;3.55;1.38;;;;;;;;;;5438321;26;20003;-68
2024/04/20 11:19:17;;;;;;;4.63;1.77;;;;;;;;;;5438896;26;20420;-61
2024/04/20 11:21:42;;;;;;;6.88;1.80;;;;;;;;;;5441727;26;20427;-63
2024/04/20 11:24:08;;;;;;;4.90;1.83;;;;;;;;;;5446769;26;19999;-64
2024/04/20 11:26:34;;;;;;;5.93;1.95;;;;;;;;;;5445078;26;20428;-61
2024/04/20 11:29:00;;;;;;;4.50;1.63;;;;;;;;;;5443035;26;20007;-62
2024/04/20 11:31:25;;;;;;;5.03;1.75;;;;;;;;;;5431632;26;20049;-62
2024/04/20 11:33:51;;;;;;;5.13;1.73;;;;;;;;;;5431916;26;20075;-63
2024/04/20 11:36:17;;;;;;;6.65;1.80;;;;;;;;;;5441162;26;20023;-61
2024/04/20 11:38:43;;;;;;;4.03;1.30;;;;;;;;;;5447065;26;20439;-63
2024/04/20 11:41:08;;;;;;;6.45;3.38;;;;;;;;;;5446120;26;20013;-62
2024/04/20 11:43:35;;;;;;;4.18;1.55;;;;;;;;;;5442638;26;20048;-61
2024/04/20 11:46:01;;;;;;;4.65;1.55;;;;;;;;;;5439258;26;20027;-62
2024/04/20 11:48:29;;;;;;;4.45;1.45;;;;;;;;;;5434921;26;20018;-62
2024/04/20 11:51:05;;;;;;;4.32;1.60;;;;;;;;;;5435911;26;19999;-63
2024/04/20 11:56:15;;;;;;;6.95;2.50;;;;;;;;;;5432904;26;20039;-62
2024/04/20 11:58:45;;;;;;;6.00;1.73;;;;;;;;;;5447608;26;20003;-64
2024/04/20 12:01:11;;;;;;;5.28;1.98;;;;;;;;;;5437183;26;19998;-65
2024/04/20 12:03:36;;;;;;;4.40;1.90;;;;;;;;;;5437815;26;20075;-61
2024/04/20 12:06:02;;;;;;;5.38;2.10;;;;;;;;;;5451020;26;20113;-64
2024/04/20 12:08:28;;;;;;;6.32;2.88;;;;;;;;;;5438925;26;20408;-62
2024/04/20 12:10:53;;;;;;;4.82;1.90;;;;;;;;;;5445616;26;20397;-63
2024/04/20 12:13:20;;;;;;;4.95;1.98;;;;;;;;;;5415867;26;19999;-63
2024/04/20 12:15:46;;;;;;;4.65;1.70;;;;;;;;;;5432054;26;20045;-63
2024/04/20 12:18:11;;;;;;;4.35;1.60;;;;;;;;;;5415265;26;20007;-63
2024/04/20 12:20:37;;;;;;;4.93;1.70;;;;;;;;;;5430747;26;20467;-64
2024/04/20 12:23:03;;;;;;;4.72;1.50;;;;;;;;;;5438532;26;20320;-62
2024/04/20 12:25:28;;;;;;;3.85;1.35;;;;;;;;;;5430007;26;20404;-63
2024/04/20 12:27:54;;;;;;;4.85;1.60;;;;;;;;;;5439845;26;20698;-62
2024/04/20 12:30:19;;;;;;;4.72;1.65;;;;;;;;;;5424901;26;20531;-63
2024/04/20 12:32:45;;;;;;;4.40;1.70;;;;;;;;;;5427534;26;19994;-64
2024/04/20 12:35:10;;;;;;;3.97;1.40;;;;;;;;;;5423802;26;20006;-63
2024/04/20 12:37:36;;;;;;;4.88;1.42;;;;;;;;;;5437279;26;20142;-63
2024/04/20 12:40:01;;;;;;;4.13;1.30;;;;;;;;;;5417700;26;19995;-63
2024/04/20 12:42:28;;;;;;;3.30;1.30;;;;;;;;;;5415599;26;20011;-62
2024/04/20 12:44:57;;;;;;;4.75;1.50;;;;;;;;;;5426350;26;20006;-65
2024/04/20 12:47:23;;;;;;;4.75;1.52;;;;;;;;;;5441134;26;19998;-62
2024/04/20 12:49:48;;;;;;;3.42;1.20;;;;;;;;;;5447419;26;20074;-64
2024/04/20 12:52:14;;;;;;;5.68;1.50;;;;;;;;;;5438530;26;19995;-63
2024/04/20 12:54:39;;;;;;;3.72;1.25;;;;;;;;;;5432041;26;20015;-64
2024/04/20 12:57:05;;;;;;;3.72;1.40;;;;;;;;;;5442011;26;20593;-62
2024/04/20 12:59:30;;;;;;;5.88;1.45;;;;;;;;;;5444763;26;20319;-64
2024/04/20 13:01:56;;;;;;;3.70;1.35;;;;;;;;;;5439695;26;20412;-62
2024/04/20 13:04:22;;;;;;;4.10;1.40;;;;;;;;;;5439480;26;20801;-63
2024/04/20 13:06:47;;;;;;;4.07;1.40;;;;;;;;;;5429966;26;20427;-61
2024/04/20 13:09:15;;;;;;;4.63;1.70;;;;;;;;;;5412923;26;20072;-61
2024/04/20 13:11:40;;;;;;;4.65;1.40;;;;;;;;;;5438716;26;19991;-64
2024/04/20 13:14:06;;;;;;;4.10;1.52;;;;;;;;;;5432812;26;19995;-61
2024/04/20 13:16:31;;;;;;;4.22;1.20;;;;;;;;;;5449388;26;20453;-62
2024/04/20 13:18:57;;;;;;;1.23;0.50;;;;;;;;;;5449121;26;20006;-62
2024/04/20 13:21:22;;;;;;;3.70;1.15;;;;;;;;;;5450201;26;20013;-62
2024/04/20 13:23:48;;;;;;;3.22;0.98;;;;;;;;;;5445204;26;19996;-62
2024/04/20 13:26:15;;;;;;;4.63;1.05;;;;;;;;;;5452024;26;20009;-62
2024/04/20 13:28:40;;;;;;;4.03;1.17;;;;;;;;;;5451722;26;20483;-62
2024/04/20 13:31:06;;;;;;;3.83;1.23;;;;;;;;;;5447764;26;20006;-63
2024/04/20 13:33:32;;;;;;;3.55;1.20;;;;;;;;;;5441634;26;20002;-62
2024/04/20 13:35:59;;;;;;;3.17;1.20;;;;;;;;;;5455114;26;20034;-63
2024/04/20 13:38:25;;;;;;;3.25;1.20;;;;;;;;;;5459905;26;20013;-62
2024/04/20 13:40:57;;;;;;;4.43;1.30;;;;;;;;;;5457568;26;20013;-62
2024/04/20 13:43:23;;;;;;;5.38;1.38;;;;;;;;;;5451752;26;20013;-63
2024/04/20 13:45:49;;;;;;;4.25;1.30;;;;;;;;;;5454916;26;20461;-63
2024/04/20 13:48:15;;;;;;;3.72;1.20;;;;;;;;;;5456313;26;20063;-63
2024/04/20 13:50:41;;;;;;;3.17;0.90;;;;;;;;;;5459516;26;20415;-63
2024/04/20 13:53:08;;;;;;;3.00;0.98;;;;;;;;;;5437916;26;20467;-62
2024/04/20 13:55:33;;;;;;;3.78;1.00;;;;;;;;;;5447248;26;20256;-63
2024/04/20 13:58:00;;;;;;;3.45;1.10;;;;;;;;;;5453660;26;20002;-61
2024/04/20 14:00:25;;;;;;;3.60;1.10;;;;;;;;;;5453674;26;20003;-64
2024/04/20 14:02:51;;;;;;;3.78;1.10;;;;;;;;;;5451222;26;21309;-62
2024/04/20 14:05:18;;;;;;;3.72;1.10;;;;;;;;;;5452720;26;20295;-62
2024/04/20 14:07:46;;;;;;;3.47;1.05;;;;;;;;;;5446587;26;20046;-62
2024/04/20 14:10:14;;;;;;;3.22;1.10;;;;;;;;;;5449762;26;20003;-63
2024/04/20 14:12:40;;;;;;;3.50;1.30;;;;;;;;;;5416766;26;20006;-64
2024/04/20 14:15:05;;;;;;;3.45;1.38;;;;;;;;;;5416963;26;20011;-62
2024/04/20 14:17:31;;;;;;;3.63;1.10;;;;;;;;;;5414705;26;20330;-60
2024/04/20 14:19:56;;;;;;;3.70;1.02;;;;;;;;;;5435075;26;20063;-62
2024/04/20 14:22:23;;;;;;;5.03;1.13;;;;;;;;;;5416881;26;20003;-63
2024/04/20 14:24:48;;;;;;;;;;;;;;;;;;5430455;26;20448;-64
2024/04/20 14:27:14;;;;;;;2.85;1.10;;;;;;;;;;5417346;26;19924;-63
2024/04/20 14:29:46;;;;;;;3.60;1.10;;;;;;;;;;5452525;26;19995;-62
2024/04/20 14:32:11;;;;;;;3.13;1.00;;;;;;;;;;5418242;26;20047;-61
2024/04/20 14:34:38;;;;;;;3.63;1.23;;;;;;;;;;5416832;26;20007;-63
2024/04/20 14:37:04;;;;;;;4.43;1.65;;;;;;;;;;5414183;26;20011;-67
2024/04/20 14:39:29;;;;;;;6.47;1.60;;;;;;;;;;5446292;26;20338;-65
2024/04/20 14:41:55;;;;;;;3.90;1.33;;;;;;;;;;5426321;26;20409;-62